Time;durP1;ratioP1;P1;durP2;ratioP2;P2;SDS_P1;SDS_P2;PMS_P1;PMS_P2;Temp;Humidity;BMP_temperature;BMP_pressure;BME280_temperature;BME280_humidity;BME280_pressure;Samples;Min_cycle;Max_cycle;Signal;HPM_P1;HPM_P2
2022/05/26 00:01:49;;;;;;;;;;;16.40;92.00;;;;;;5052845;28;19913;-65
2022/05/26 00:04:15;;;;;;;;;;;16.40;92.30;;;;;;5050197;28;19989;-63
2022/05/26 00:06:41;;;;;;;;;;;16.40;92.30;;;;;;5051308;28;19936;-65
2022/05/26 00:09:06;;;;;;;;;;;16.40;92.30;;;;;;5052927;28;19913;-65
2022/05/26 00:11:33;;;;;;;;;;;16.30;92.20;;;;;;5053032;28;19963;-63
2022/05/26 00:14:07;;;;;;;;;;;16.40;92.60;;;;;;5051618;28;19990;-64
2022/05/26 00:16:41;;;;;;;;;;;16.40;92.50;;;;;;5052091;28;20281;-64
2022/05/26 00:19:07;;;;;;;;;;;16.40;92.50;;;;;;5052385;28;20281;-64
2022/05/26 00:21:33;;;;;;;;;;;16.40;92.20;;;;;;5051625;28;19913;-65
2022/05/26 00:23:58;;;;;;;;;;;16.40;92.50;;;;;;5053405;28;19921;-65
2022/05/26 00:26:24;;;;;;;;;;;16.30;92.90;;;;;;5051147;28;19913;-64
2022/05/26 00:28:50;;;;;;;;;;;16.30;92.80;;;;;;5053209;28;19913;-64
2022/05/26 00:31:15;;;;;;;;;;;16.30;93.00;;;;;;5052956;28;20011;-65
2022/05/26 00:33:41;;;;;;;;;;;16.30;93.40;;;;;;5051027;28;19917;-64
2022/05/26 00:36:09;;;;;;;;;;;16.20;93.10;;;;;;5053051;28;19967;-64
2022/05/26 00:38:35;;;;;;;;;;;16.20;93.20;;;;;;5054052;28;19917;-65
2022/05/26 00:41:05;;;;;;;;;;;16.20;93.30;;;;;;5053367;28;20340;-63
2022/05/26 00:43:31;;;;;;;;;;;16.20;93.40;;;;;;5050875;28;19913;-63
2022/05/26 00:45:59;;;;;;;;;;;16.20;93.50;;;;;;5050687;28;19908;-65
2022/05/26 00:48:27;;;;;;;;;;;16.20;93.30;;;;;;5052642;28;19908;-64
2022/05/26 00:50:58;;;;;;;;;;;16.20;93.00;;;;;;5050575;28;20003;-62
2022/05/26 00:53:32;;;;;;;;;;;16.20;93.50;;;;;;5051076;28;19972;-64
2022/05/26 00:56:01;;;;;;;;;;;16.20;93.60;;;;;;5057589;28;19913;-65
2022/05/26 00:58:31;;;;;;;;;;;16.10;93.60;;;;;;5054548;28;20289;-63
2022/05/26 01:00:58;;;;;;;;;;;16.00;94.00;;;;;;5054791;28;19908;-64
2022/05/26 01:03:33;;;;;;;;;;;16.00;93.70;;;;;;5055403;28;19908;-64
2022/05/26 01:06:06;;;;;;;;;;;16.00;93.80;;;;;;5053113;28;20336;-64
2022/05/26 01:08:38;;;;;;;;;;;16.00;93.80;;;;;;5050648;28;19913;-63
2022/05/26 01:11:05;;;;;;;;;;;16.00;94.00;;;;;;5055100;28;19923;-64
2022/05/26 01:13:31;;;;;;;;;;;16.00;94.00;;;;;;5057363;28;19921;-65
2022/05/26 01:16:03;;;;;;;;;;;16.00;94.20;;;;;;5052507;28;19912;-64
2022/05/26 01:18:43;;;;;;;;;;;16.00;94.20;;;;;;5052178;28;20290;-64
2022/05/26 01:21:15;;;;;;;;;;;16.00;94.30;;;;;;5056245;28;19919;-63
2022/05/26 01:23:53;;;;;;;;;;;15.90;94.20;;;;;;5057195;28;19939;-62
2022/05/26 01:26:19;;;;;;;;;;;15.90;94.20;;;;;;5056460;28;19999;-63
2022/05/26 01:28:44;;;;;;;;;;;15.90;94.20;;;;;;5055567;28;20000;-63
2022/05/26 01:31:29;;;;;;;;;;;15.90;94.10;;;;;;5054723;28;19920;-64
2022/05/26 01:33:54;;;;;;;;;;;15.90;93.90;;;;;;5053752;28;19917;-64
2022/05/26 01:36:26;;;;;;;;;;;15.90;94.00;;;;;;5056286;28;19933;-65
2022/05/26 01:39:06;;;;;;;;;;;15.90;94.10;;;;;;5057002;28;19912;-63
2022/05/26 01:41:40;;;;;;;;;;;15.90;94.20;;;;;;5056382;28;19913;-64
2022/05/26 01:44:06;;;;;;;;;;;15.90;94.50;;;;;;5054249;28;19917;-63
2022/05/26 01:46:36;;;;;;;;;;;15.90;94.70;;;;;;5055690;28;19954;-64
2022/05/26 01:49:24;;;;;;;;;;;15.80;94.50;;;;;;5054137;28;19999;-65
2022/05/26 01:51:53;;;;;;;;;;;15.80;94.70;;;;;;5042760;28;20409;-64
2022/05/26 01:54:23;;;;;;;;;;;15.80;94.50;;;;;;5053629;28;19921;-63
2022/05/26 01:56:48;;;;;;;;;;;15.80;94.70;;;;;;5038091;28;20393;-65
2022/05/26 01:59:25;;;;;;;;;;;15.80;94.70;;;;;;5055695;28;19948;-63
2022/05/26 02:01:55;;;;;;;;;;;15.80;94.80;;;;;;5054669;28;19916;-64
2022/05/26 02:04:23;;;;;;;;;;;15.80;94.80;;;;;;5055544;28;19912;-63
2022/05/26 02:06:51;;;;;;;;;;;15.80;94.90;;;;;;5052270;28;19909;-63
2022/05/26 02:09:20;;;;;;;;;;;15.80;94.90;;;;;;5055779;28;19917;-62
2022/05/26 02:12:04;;;;;;;;;;;15.80;94.80;;;;;;5054406;28;19908;-64
2022/05/26 02:14:36;;;;;;;;;;;15.80;94.90;;;;;;5055997;28;19921;-64
2022/05/26 02:17:13;;;;;;;;;;;15.80;94.90;;;;;;5053304;28;19916;-63
2022/05/26 02:19:58;;;;;;;;;;;15.80;95.20;;;;;;5053912;28;20452;-63
2022/05/26 02:22:28;;;;;;;;;;;15.70;95.40;;;;;;5055780;28;19954;-64
2022/05/26 02:24:59;;;;;;;;;;;15.70;95.00;;;;;;5034535;28;20304;-64
2022/05/26 02:27:26;;;;;;;;;;;15.70;95.60;;;;;;5054914;28;19913;-64
2022/05/26 02:29:52;;;;;;;;;;;15.60;95.30;;;;;;5048236;28;19909;-63
2022/05/26 02:32:38;;;;;;;;;;;15.70;95.60;;;;;;5055657;28;20050;-63
2022/05/26 02:35:05;;;;;;;;;;;15.70;95.50;;;;;;5051835;28;20180;-65
2022/05/26 02:37:31;;;;;;;;;;;15.70;95.60;;;;;;5055364;28;19917;-65
2022/05/26 02:39:57;;;;;;;;;;;15.70;95.60;;;;;;5051818;28;19913;-64
2022/05/26 02:42:24;;;;;;;;;;;15.70;95.50;;;;;;5053905;28;19913;-64
2022/05/26 02:44:50;;;;;;;;;;;15.70;95.60;;;;;;5054518;28;19908;-65
2022/05/26 02:47:22;;;;;;;;;;;15.70;95.60;;;;;;5055552;28;20007;-64
2022/05/26 02:50:06;;;;;;;;;;;15.70;96.00;;;;;;5055101;28;19912;-63
2022/05/26 02:52:39;;;;;;;;;;;15.70;95.90;;;;;;5053161;28;19924;-62
2022/05/26 02:55:14;;;;;;;;;;;15.60;95.80;;;;;;5052384;28;19917;-63
2022/05/26 02:57:39;;;;;;;;;;;15.60;96.20;;;;;;5052876;28;20063;-61
2022/05/26 03:00:05;;;;;;;;;;;15.60;96.10;;;;;;5053708;28;20000;-63
2022/05/26 03:02:33;;;;;;;;;;;15.60;96.10;;;;;;5053630;28;19912;-64
2022/05/26 03:05:03;;;;;;;;;;;15.60;96.20;;;;;;5054248;28;19913;-64
2022/05/26 03:07:29;;;;;;;;;;;15.60;96.50;;;;;;5054377;28;20579;-63
2022/05/26 03:09:55;;;;;;;;;;;15.60;96.50;;;;;;5051614;28;19909;-63
2022/05/26 03:12:26;;;;;;;;;;;15.60;96.10;;;;;;5052910;28;19919;-63
2022/05/26 03:14:51;;;;;;;;;;;15.50;96.50;;;;;;5052369;28;19983;-64
2022/05/26 03:17:17;;;;;;;;;;;15.50;96.50;;;;;;5051050;28;20010;-64
2022/05/26 03:19:42;;;;;;;;;;;15.50;96.70;;;;;;5053192;28;19912;-64
2022/05/26 03:22:08;;;;;;;;;;;15.50;96.80;;;;;;5032447;28;19908;-64
2022/05/26 03:24:34;;;;;;;;;;;15.50;96.90;;;;;;5051635;28;20392;-63
2022/05/26 03:26:59;;;;;;;;;;;15.50;97.00;;;;;;5050820;28;19913;-65
2022/05/26 03:29:25;;;;;;;;;;;15.50;96.90;;;;;;5052186;28;20451;-63
2022/05/26 03:31:50;;;;;;;;;;;15.40;96.90;;;;;;5052945;28;19924;-64
2022/05/26 03:42:28;;;;;;;;;;;15.40;97.00;;;;;;5053591;28;19920;-63
2022/05/26 03:44:55;;;;;;;;;;;15.40;97.70;;;;;;5053453;28;19916;-64
2022/05/26 03:47:21;;;;;;;;;;;15.40;97.60;;;;;;5035618;28;19917;-63
2022/05/26 03:49:46;;;;;;;;;;;15.30;97.50;;;;;;5032201;28;20289;-63
2022/05/26 03:52:12;;;;;;;;;;;15.30;97.50;;;;;;5032742;28;19916;-63
2022/05/26 03:54:37;;;;;;;;;;;15.30;97.40;;;;;;5031769;28;19921;-64
2022/05/26 03:57:05;;;;;;;;;;;15.30;97.50;;;;;;5029400;28;20144;-64
2022/05/26 03:59:33;;;;;;;;;;;15.30;97.50;;;;;;5031164;28;20012;-63
2022/05/26 04:01:59;;;;;;;;;;;15.30;97.50;;;;;;5031508;28;19913;-63
2022/05/26 04:04:24;;;;;;;;;;;15.20;97.50;;;;;;5031622;28;19967;-62
2022/05/26 04:06:50;;;;;;;;;;;15.30;97.60;;;;;;5031138;28;19909;-63
2022/05/26 04:09:16;;;;;;;;;;;15.20;97.60;;;;;;5022500;28;19929;-63
2022/05/26 04:11:41;;;;;;;;;;;15.20;97.70;;;;;;5032243;28;20302;-63
2022/05/26 04:14:07;;;;;;;;;;;15.20;97.60;;;;;;5033483;28;19921;-64
2022/05/26 04:16:32;;;;;;;;;;;15.20;97.70;;;;;;5031751;28;20365;-62
2022/05/26 04:18:58;;;;;;;;;;;15.20;97.60;;;;;;5031308;28;19909;-63
2022/05/26 04:21:24;;;;;;;;;;;15.20;97.70;;;;;;5031633;28;20181;-65
2022/05/26 04:23:49;;;;;;;;;;;15.20;97.60;;;;;;5033451;28;19939;-64
2022/05/26 04:26:15;;;;;;;;;;;15.20;97.80;;;;;;5033348;28;19913;-64
2022/05/26 04:28:41;;;;;;;;;;;15.20;97.70;;;;;;5031960;28;19913;-63
2022/05/26 04:31:06;;;;;;;;;;;15.20;98.00;;;;;;5030338;28;20386;-64
2022/05/26 04:33:32;;;;;;;;;;;15.20;97.80;;;;;;5032588;28;20290;-64
2022/05/26 04:35:58;;;;;;;;;;;15.20;97.90;;;;;;5032398;28;19913;-63
2022/05/26 04:38:24;;;;;;;;;;;15.20;98.00;;;;;;5047621;28;20355;-63
2022/05/26 04:40:56;;;;;;;;;;;15.20;98.00;;;;;;5033912;28;19939;-62
2022/05/26 04:43:22;;;;;;;;;;;15.20;98.00;;;;;;5032845;28;19920;-64
2022/05/26 04:45:47;;;;;;;;;;;15.20;97.90;;;;;;5030444;28;19913;-64
2022/05/26 04:48:13;;;;;;;;;;;15.30;97.90;;;;;;5032354;28;19913;-64
2022/05/26 04:50:39;;;;;;;;;;;15.30;98.10;;;;;;5044098;28;20432;-63
2022/05/26 04:53:04;;;;;;;;;;;15.30;98.30;;;;;;5052819;28;20623;-65
2022/05/26 04:55:30;;;;;;;;;;;15.30;98.10;;;;;;5033128;28;19913;-63
2022/05/26 04:57:55;;;;;;;;;;;15.30;98.30;;;;;;5050248;28;19916;-62
2022/05/26 05:00:21;;;;;;;;;;;15.30;98.30;;;;;;5047673;28;19920;-65
2022/05/26 05:02:46;;;;;;;;;;;15.30;98.20;;;;;;5053197;28;19909;-65
2022/05/26 05:05:12;;;;;;;;;;;15.40;98.30;;;;;;5052864;28;19913;-65
2022/05/26 05:07:37;;;;;;;;;;;15.40;98.20;;;;;;5053147;28;19962;-66
2022/05/26 05:10:04;;;;;;;;;;;15.40;98.40;;;;;;5050839;28;19916;-63
2022/05/26 05:12:29;;;;;;;;;;;15.30;98.40;;;;;;5049949;28;19919;-61
2022/05/26 05:14:55;;;;;;;;;;;15.40;98.40;;;;;;5052716;28;19916;-62
2022/05/26 05:17:22;;;;;;;;;;;15.40;98.50;;;;;;5049907;28;20427;-64
2022/05/26 05:19:48;;;;;;;;;;;15.40;98.50;;;;;;5050916;28;20015;-63
2022/05/26 05:22:23;;;;;;;;;;;15.40;98.60;;;;;;5051859;28;20401;-65
2022/05/26 05:25:00;;;;;;;;;;;15.40;98.50;;;;;;5049859;28;19909;-64
2022/05/26 05:27:30;;;;;;;;;;;15.50;98.50;;;;;;5051574;28;19919;-65
2022/05/26 05:29:58;;;;;;;;;;;15.50;98.60;;;;;;5051334;28;20016;-65
2022/05/26 05:32:29;;;;;;;;;;;15.50;98.60;;;;;;5052428;28;19917;-66
2022/05/26 05:34:56;;;;;;;;;;;15.50;98.60;;;;;;5049129;28;19927;-64
2022/05/26 05:37:22;;;;;;;;;;;15.50;98.60;;;;;;5051193;28;19913;-65
2022/05/26 05:39:48;;;;;;;;;;;15.50;98.80;;;;;;5033216;28;19931;-65
2022/05/26 05:42:13;;;;;;;;;;;15.60;98.80;;;;;;5056158;28;19917;-65
2022/05/26 05:44:39;;;;;;;;;;;15.60;98.70;;;;;;5054855;28;20305;-64
2022/05/26 05:47:05;;;;;;;;;;;15.60;98.70;;;;;;5054904;28;19913;-63
2022/05/26 05:49:31;;;;;;;;;;;15.60;98.70;;;;;;5049738;28;19920;-65
2022/05/26 05:52:04;;;;;;;;;;;15.60;98.70;;;;;;5052610;28;19932;-65
2022/05/26 05:54:29;;;;;;;;;;;15.60;98.60;;;;;;5054348;28;20369;-65
2022/05/26 05:56:55;;;;;;;;;;;15.60;99.00;;;;;;5051392;28;19924;-65
2022/05/26 05:59:20;;;;;;;;;;;15.60;98.60;;;;;;5055925;28;19920;-64
2022/05/26 06:01:46;;;;;;;;;;;15.60;98.60;;;;;;5055465;28;20300;-66
2022/05/26 06:04:11;;;;;;;;;;;15.60;98.60;;;;;;5053387;28;19920;-63
2022/05/26 06:06:38;;;;;;;;;;;15.70;98.70;;;;;;5054035;28;19909;-65
2022/05/26 06:09:03;;;;;;;;;;;15.70;98.70;;;;;;5055227;28;19909;-63
2022/05/26 06:11:29;;;;;;;;;;;15.70;98.50;;;;;;5056050;28;19912;-63
2022/05/26 06:13:54;;;;;;;;;;;15.60;98.50;;;;;;5049558;28;19929;-61
2022/05/26 06:16:20;;;;;;;;;;;15.60;98.50;;;;;;5050653;28;19912;-64
2022/05/26 06:18:48;;;;;;;;;;;15.70;98.50;;;;;;5033547;28;19916;-62
2022/05/26 06:21:13;;;;;;;;;;;15.70;98.50;;;;;;5049566;28;19960;-70
2022/05/26 06:23:39;;;;;;;;;;;15.70;98.50;;;;;;5053755;28;19960;-70
2022/05/26 06:26:04;;;;;;;;;;;15.70;98.50;;;;;;5055454;28;19935;-70
2022/05/26 06:31:14;;;;;;;;;;;15.80;98.50;;;;;;5048697;28;20451;-69
2022/05/26 06:39:09;;;;;;;;;;;15.90;98.40;;;;;;5052945;28;19919;-68
2022/05/26 06:44:19;;;;;;;;;;;16.00;98.30;;;;;;5042963;28;19979;-69
2022/05/26 06:46:44;;;;;;;;;;;16.00;98.30;;;;;;5044457;28;19921;-69
2022/05/26 06:51:45;;;;;;;;;;;16.00;98.50;;;;;;5198359;22;19929;-70
2022/05/26 06:54:11;;;;;;;;;;;16.10;98.40;;;;;;5026174;28;19974;-69
2022/05/26 06:56:36;;;;;;;;;;;16.10;98.30;;;;;;5028036;28;19917;-68
2022/05/26 06:59:02;;;;;;;;;;;16.20;98.50;;;;;;5024161;28;19963;-66
2022/05/26 07:01:28;;;;;;;;;;;16.20;98.40;;;;;;5028298;28;19952;-62
2022/05/26 07:03:53;;;;;;;;;;;16.30;98.20;;;;;;5028084;28;19921;-61
2022/05/26 07:06:20;;;;;;;;;;;16.30;98.20;;;;;;5029815;28;19917;-61
2022/05/26 07:08:46;;;;;;;;;;;16.30;98.20;;;;;;5028518;28;19917;-61
2022/05/26 07:11:12;;;;;;;;;;;16.40;98.10;;;;;;5027729;28;20377;-61
2022/05/26 07:13:38;;;;;;;;;;;16.40;98.20;;;;;;5026505;28;20008;-62
2022/05/26 07:16:04;;;;;;;;;;;16.50;98.20;;;;;;5028949;28;19913;-60
2022/05/26 07:18:30;;;;;;;;;;;16.40;97.90;;;;;;5028067;28;19913;-62
2022/05/26 07:20:56;;;;;;;;;;;16.40;97.80;;;;;;5025767;28;20292;-60
2022/05/26 07:23:21;;;;;;;;;;;16.30;97.90;;;;;;5025774;28;20363;-62
2022/05/26 07:25:47;;;;;;;;;;;16.40;97.90;;;;;;5027949;28;20062;-60
2022/05/26 07:28:12;;;;;;;;;;;16.50;98.00;;;;;;5027449;28;20015;-60
2022/05/26 07:30:38;;;;;;;;;;;16.50;98.00;;;;;;5026691;28;19920;-60
2022/05/26 07:33:04;;;;;;;;;;;16.60;98.00;;;;;;5028274;28;19983;-62
2022/05/26 07:35:30;;;;;;;;;;;16.70;98.00;;;;;;5024177;28;19957;-61
2022/05/26 07:43:32;;;;;;;;;;;16.80;97.50;;;;;;4986375;28;19914;-60
2022/05/26 07:45:59;;;;;;;;;;;16.70;97.70;;;;;;4986608;28;19917;-60
2022/05/26 07:48:24;;;;;;;;;;;16.70;98.40;;;;;;4985686;28;19921;-61
2022/05/26 07:50:50;;;;;;;;;;;16.60;98.50;;;;;;4981189;28;19922;-61
2022/05/26 07:53:15;;;;;;;;;;;16.60;98.30;;;;;;4985190;28;19961;-60
2022/05/26 07:55:42;;;;;;;;;;;16.60;98.30;;;;;;4986242;28;19960;-61
2022/05/26 07:58:08;;;;;;;;;;;16.60;98.40;;;;;;4985537;28;20104;-61
2022/05/26 08:00:34;;;;;;;;;;;16.60;98.50;;;;;;4982419;28;19979;-61
2022/05/26 08:02:59;;;;;;;;;;;16.70;98.40;;;;;;4984887;28;19985;-60
2022/05/26 08:05:25;;;;;;;;;;;16.70;98.40;;;;;;4985613;28;19970;-62
2022/05/26 08:07:50;;;;;;;;;;;16.80;98.50;;;;;;4986657;28;20025;-62
2022/05/26 08:10:16;;;;;;;;;;;16.70;99.10;;;;;;4985208;28;19918;-61
2022/05/26 08:12:42;;;;;;;;;;;16.70;99.50;;;;;;4986888;28;20485;-61
2022/05/26 08:15:07;;;;;;;;;;;16.70;99.60;;;;;;4985838;28;19925;-62
2022/05/26 08:17:33;;;;;;;;;;;16.70;99.90;;;;;;4983439;28;19914;-61
2022/05/26 08:19:58;;;;;;;;;;;16.70;99.90;;;;;;5000131;28;19913;-61
2022/05/26 08:22:24;;;;;;;;;;;16.60;99.90;;;;;;5026898;28;19913;-60
2022/05/26 08:24:53;;;;;;;;;;;16.50;99.90;;;;;;5028677;28;19968;-62
2022/05/26 08:27:19;;;;;;;;;;;16.50;99.90;;;;;;5027788;28;20007;-61
2022/05/26 08:29:45;;;;;;;;;;;16.50;99.90;;;;;;5023784;28;20012;-61
2022/05/26 08:32:10;;;;;;;;;;;16.50;99.90;;;;;;5026409;28;19917;-61
2022/05/26 08:34:36;;;;;;;;;;;16.40;99.90;;;;;;5025356;28;19956;-61
2022/05/26 08:37:03;;;;;;;;;;;16.50;99.90;;;;;;5024048;28;19913;-62
2022/05/26 08:39:31;;;;;;;;;;;16.50;99.90;;;;;;5025369;28;19913;-61
2022/05/26 08:41:57;;;;;;;;;;;16.60;99.90;;;;;;5018413;28;19913;-61
2022/05/26 08:44:31;;;;;;;;;;;16.60;99.90;;;;;;5022329;28;19920;-60
2022/05/26 08:47:20;;;;;;;;;;;16.70;99.90;;;;;;5025337;28;19914;-61
2022/05/26 08:49:50;;;;;;;;;;;16.60;99.90;;;;;;5029803;28;19913;-59
2022/05/26 08:52:19;;;;;;;;;;;16.60;99.30;;;;;;5029372;28;19936;-61
2022/05/26 08:54:44;;;;;;;;;;;16.50;98.80;;;;;;5025372;28;20282;-60
2022/05/26 08:57:15;;;;;;;;;;;16.50;98.70;;;;;;5029004;28;19935;-61
2022/05/26 08:59:44;;;;;;;;;;;16.60;98.80;;;;;;5024822;28;19917;-60
2022/05/26 09:02:24;;;;;;;;;;;16.70;98.60;;;;;;5030329;28;19928;-60
2022/05/26 09:04:49;;;;;;;;;;;16.70;98.60;;;;;;5026518;28;19925;-61
2022/05/26 09:12:59;;;;;;;;;;;16.80;98.40;;;;;;5024885;28;19919;-61
2022/05/26 09:15:26;;;;;;;;;;;16.90;98.30;;;;;;5032384;28;20397;-61
2022/05/26 09:17:51;;;;;;;;;;;16.90;98.00;;;;;;5032268;28;19917;-61
2022/05/26 09:20:49;;;;;;;;;;;17.00;97.90;;;;;;5033448;28;19913;-61
2022/05/26 09:23:22;;;;;;;;;;;17.10;97.90;;;;;;4967646;28;19925;-61
2022/05/26 09:25:53;;;;;;;;;;;17.20;97.60;;;;;;4964331;28;19914;-62
2022/05/26 09:28:49;;;;;;;;;;;17.30;97.80;;;;;;4953076;28;19969;-61
2022/05/26 09:31:16;;;;;;;;;;;17.40;97.80;;;;;;4941257;28;19923;-61
2022/05/26 09:33:41;;;;;;;;;;;17.50;97.80;;;;;;4971558;28;19922;-60
2022/05/26 09:36:24;;;;;;;;;;;17.50;97.50;;;;;;4967062;28;20062;-60
2022/05/26 09:38:50;;;;;;;;;;;17.50;96.70;;;;;;4963038;28;19914;-62
2022/05/26 09:41:18;;;;;;;;;;;17.30;96.60;;;;;;4966948;28;19925;-60
2022/05/26 09:43:52;;;;;;;;;;;17.30;97.10;;;;;;4967324;28;20597;-61
2022/05/26 09:46:17;;;;;;;;;;;17.30;97.10;;;;;;4968090;28;19918;-61
2022/05/26 09:48:45;;;;;;;;;;;17.30;96.70;;;;;;4953678;28;19921;-61
2022/05/26 09:51:16;;;;;;;;;;;17.30;96.70;;;;;;4956812;28;19977;-60
2022/05/26 09:53:43;;;;;;;;;;;17.40;96.80;;;;;;4962301;28;20371;-61
2022/05/26 09:56:11;;;;;;;;;;;17.50;96.90;;;;;;4968272;28;20057;-60
2022/05/26 09:58:39;;;;;;;;;;;17.60;96.70;;;;;;4996344;28;20021;-61
2022/05/26 10:01:10;;;;;;;;;;;17.70;96.50;;;;;;5032937;28;19917;-61
2022/05/26 10:03:36;;;;;;;;;;;17.70;96.60;;;;;;5033325;28;20312;-60
2022/05/26 10:06:04;;;;;;;;;;;17.80;96.20;;;;;;5033444;28;19920;-60
2022/05/26 10:08:32;;;;;;;;;;;17.80;96.40;;;;;;5032320;28;20278;-61
2022/05/26 10:11:21;;;;;;;;;;;17.80;96.30;;;;;;5032114;28;19920;-61
2022/05/26 10:14:04;;;;;;;;;;;17.90;96.00;;;;;;5024454;28;20339;-61
2022/05/26 10:16:30;;;;;;;;;;;17.90;96.00;;;;;;5032654;28;19964;-61
2022/05/26 10:19:24;;;;;;;;;;;17.90;95.40;;;;;;5032641;28;19952;-60
2022/05/26 10:22:09;;;;;;;;;;;17.80;95.40;;;;;;5012630;28;20590;-60
2022/05/26 10:24:40;;;;;;;;;;;17.80;95.10;;;;;;5031749;28;19921;-60
2022/05/26 10:27:13;;;;;;;;;;;17.80;95.40;;;;;;5030623;28;19913;-60
2022/05/26 10:29:59;;;;;;;;;;;17.90;95.40;;;;;;5032219;28;19938;-61
2022/05/26 10:32:34;;;;;;;;;;;18.00;95.40;;;;;;5031855;28;19996;-61
2022/05/26 10:35:19;;;;;;;;;;;18.20;95.20;;;;;;5031943;28;20001;-60
2022/05/26 10:37:48;;;;;;;;;;;18.20;94.90;;;;;;5029872;28;20364;-61
2022/05/26 10:40:32;;;;;;;;;;;18.30;95.20;;;;;;5032266;28;20917;-60
2022/05/26 10:43:00;;;;;;;;;;;18.40;95.00;;;;;;5032093;28;19909;-61
2022/05/26 10:45:30;;;;;;;;;;;18.40;95.20;;;;;;5032637;28;19913;-61
2022/05/26 10:47:56;;;;;;;;;;;18.40;95.30;;;;;;5031562;28;20364;-62
2022/05/26 10:50:31;;;;;;;;;;;18.50;95.30;;;;;;5032186;28;19928;-61
2022/05/26 10:53:15;;;;;;;;;;;18.60;94.90;;;;;;5032283;28;19995;-62
2022/05/26 10:55:57;;;;;;;;;;;18.60;94.80;;;;;;5032325;28;20314;-61
2022/05/26 10:58:22;;;;;;;;;;;18.60;94.90;;;;;;5031640;28;20281;-62
2022/05/26 11:00:54;;;;;;;;;;;18.50;94.70;;;;;;5030956;28;20404;-61
2022/05/26 11:03:24;;;;;;;;;;;18.50;94.60;;;;;;5031636;28;19913;-61
2022/05/26 11:05:54;;;;;;;;;;;18.50;94.30;;;;;;5032391;28;19917;-61
2022/05/26 11:08:33;;;;;;;;;;;18.40;94.50;;;;;;5025191;28;19913;-61
2022/05/26 11:11:04;;;;;;;;;;;18.50;94.40;;;;;;5026640;28;19937;-60
2022/05/26 11:13:40;;;;;;;;;;;18.50;94.50;;;;;;5031574;28;19928;-60
2022/05/26 11:19:16;;;;;;;;;;;18.60;94.30;;;;;;5030196;28;19928;-60
2022/05/26 11:21:41;;;;;;;;;;;18.60;94.00;;;;;;5031462;28;19909;-62
2022/05/26 11:24:08;;;;;;;;;;;18.60;94.30;;;;;;5030453;28;19996;-61
2022/05/26 11:26:40;;;;;;;;;;;18.80;94.30;;;;;;5030913;28;19920;-62
2022/05/26 11:29:28;;;;;;;;;;;18.90;94.00;;;;;;5031312;28;19913;-62
2022/05/26 11:37:37;;;;;;;;;;;19.10;94.30;;;;;;5030602;28;19923;-62
2022/05/26 11:40:07;;;;;;;;;;;19.20;94.20;;;;;;5031341;28;19913;-61
2022/05/26 11:42:35;;;;;;;;;;;19.30;93.90;;;;;;5031650;28;20419;-61
2022/05/26 11:45:09;;;;;;;;;;;19.50;93.90;;;;;;5032671;28;19921;-61
2022/05/26 11:47:49;;;;;;;;;;;19.60;93.40;;;;;;5031091;28;20007;-61
2022/05/26 11:50:50;;;;;;;;;;;19.70;93.70;;;;;;5028728;28;19925;-62
2022/05/26 11:53:28;;;;;;;;;;;19.70;93.60;;;;;;4964627;28;19914;-61
2022/05/26 11:55:54;;;;;;;;;;;19.90;93.40;;;;;;4961006;28;19981;-60
2022/05/26 11:58:37;;;;;;;;;;;19.90;91.70;;;;;;4950060;28;19914;-61
2022/05/26 12:01:23;;;;;;;;;;;19.90;91.90;;;;;;4950752;28;19911;-61
2022/05/26 12:03:50;;;;;;;;;;;19.90;92.40;;;;;;4969086;28;19916;-61
2022/05/26 12:06:29;;;;;;;;;;;19.90;91.50;;;;;;4950227;28;19918;-61
2022/05/26 12:08:55;;;;;;;;;;;19.80;91.80;;;;;;4949758;28;19941;-60
2022/05/26 12:11:39;;;;;;;;;;;19.80;91.80;;;;;;4949466;28;19938;-61
2022/05/26 12:14:06;;;;;;;;;;;19.90;91.90;;;;;;4956889;28;19926;-60
2022/05/26 12:16:34;;;;;;;;;;;19.90;91.90;;;;;;4964572;28;19914;-61
2022/05/26 12:19:04;;;;;;;;;;;20.00;91.60;;;;;;4967804;28;20027;-61
2022/05/26 12:21:31;;;;;;;;;;;20.10;91.60;;;;;;4950007;28;19910;-61
2022/05/26 12:23:58;;;;;;;;;;;20.10;90.90;;;;;;4950025;28;20013;-61
2022/05/26 12:26:23;;;;;;;;;;;20.10;90.90;;;;;;4960939;28;19921;-60
2022/05/26 12:28:49;;;;;;;;;;;20.20;91.10;;;;;;5032402;28;19909;-61
2022/05/26 12:31:14;;;;;;;;;;;20.20;91.20;;;;;;5029407;28;20002;-61
2022/05/26 12:33:40;;;;;;;;;;;20.20;91.10;;;;;;5030241;28;19913;-61
2022/05/26 12:36:24;;;;;;;;;;;20.20;91.00;;;;;;5030016;28;19948;-60
2022/05/26 12:38:58;;;;;;;;;;;20.20;91.10;;;;;;5029802;28;19964;-60
2022/05/26 12:41:26;;;;;;;;;;;20.20;91.20;;;;;;5030368;28;19963;-60
2022/05/26 12:44:07;;;;;;;;;;;20.20;91.20;;;;;;5029316;28;20059;-61
2022/05/26 12:46:39;;;;;;;;;;;20.30;91.50;;;;;;5029770;28;19913;-61
2022/05/26 12:49:24;;;;;;;;;;;20.40;91.40;;;;;;5030781;28;19967;-61
2022/05/26 12:52:08;;;;;;;;;;;20.50;91.50;;;;;;5034748;28;19921;-61
2022/05/26 12:54:39;;;;;;;;;;;20.60;91.30;;;;;;5034876;28;19935;-60
2022/05/26 12:57:09;;;;;;;;;;;20.50;91.00;;;;;;5033860;28;20399;-60
2022/05/26 12:59:34;;;;;;;;;;;20.50;91.00;;;;;;5033773;28;19928;-60
2022/05/26 13:02:00;;;;;;;;;;;20.50;90.90;;;;;;5033322;28;19913;-60
2022/05/26 13:04:32;;;;;;;;;;;20.50;90.50;;;;;;5033720;28;19967;-62
2022/05/26 13:07:00;;;;;;;;;;;20.40;90.40;;;;;;5033815;28;19996;-60
2022/05/26 13:09:27;;;;;;;;;;;20.40;90.50;;;;;;5036778;28;19920;-61
2022/05/26 13:11:55;;;;;;;;;;;20.40;90.40;;;;;;5033539;28;19913;-60
2022/05/26 13:14:20;;;;;;;;;;;20.30;90.20;;;;;;5033493;28;20011;-60
2022/05/26 13:16:46;;;;;;;;;;;20.30;90.40;;;;;;5035461;28;19996;-60
2022/05/26 13:19:12;;;;;;;;;;;20.40;90.30;;;;;;5033517;28;19909;-60
2022/05/26 13:21:39;;;;;;;;;;;20.40;90.50;;;;;;5034159;28;19915;-60
2022/05/26 13:24:12;;;;;;;;;;;20.40;90.20;;;;;;5033848;28;20368;-60
2022/05/26 13:26:38;;;;;;;;;;;20.40;90.20;;;;;;5033383;28;20228;-60
2022/05/26 13:29:06;;;;;;;;;;;20.50;90.30;;;;;;5033177;28;20417;-59
2022/05/26 13:34:17;;;;;;;;;;;20.50;89.90;;;;;;5033513;28;19928;-61
2022/05/26 13:36:44;;;;;;;;;;;20.60;89.50;;;;;;5033927;28;19913;-60
2022/05/26 13:39:15;;;;;;;;;;;20.60;89.60;;;;;;5035056;28;19913;-60
2022/05/26 13:41:42;;;;;;;;;;;20.60;89.00;;;;;;5032780;28;20298;-60
2022/05/26 13:44:09;;;;;;;;;;;20.60;89.20;;;;;;5032781;28;20315;-60
2022/05/26 13:46:43;;;;;;;;;;;20.70;89.10;;;;;;5032790;28;19921;-60
2022/05/26 13:49:27;;;;;;;;;;;20.80;90.00;;;;;;5033521;28;19909;-61
2022/05/26 13:51:53;;;;;;;;;;;20.90;88.50;;;;;;5034032;28;19928;-60
2022/05/26 13:54:25;;;;;;;;;;;21.00;89.50;;;;;;5047723;28;19951;-60
2022/05/26 13:56:51;;;;;;;;;;;21.10;89.30;;;;;;5031896;28;19924;-59
2022/05/26 13:59:16;;;;;;;;;;;21.20;89.80;;;;;;5030715;28;19916;-60
2022/05/26 14:01:55;;;;;;;;;;;21.30;89.20;;;;;;5028731;28;19920;-60
2022/05/26 14:04:32;;;;;;;;;;;21.30;89.10;;;;;;5031385;28;20056;-60
2022/05/26 14:06:58;;;;;;;;;;;21.40;88.40;;;;;;5031166;28;19921;-61
2022/05/26 14:09:31;;;;;;;;;;;21.50;89.10;;;;;;5030355;28;19953;-60
2022/05/26 14:12:03;;;;;;;;;;;21.50;89.00;;;;;;5030736;28;19913;-60
2022/05/26 14:14:43;;;;;;;;;;;21.60;88.00;;;;;;5024117;28;19925;-60
2022/05/26 14:17:22;;;;;;;;;;;21.60;86.70;;;;;;5028580;28;19932;-60
2022/05/26 14:19:48;;;;;;;;;;;21.50;86.40;;;;;;5029242;28;19920;-60
2022/05/26 14:22:21;;;;;;;;;;;21.50;86.30;;;;;;5030047;28;20011;-61
2022/05/26 14:24:49;;;;;;;;;;;21.40;87.30;;;;;;5029342;28;20007;-61
2022/05/26 14:27:19;;;;;;;;;;;21.50;87.90;;;;;;5024381;28;19921;-61
2022/05/26 14:29:46;;;;;;;;;;;21.60;86.30;;;;;;5025594;28;19913;-59
2022/05/26 14:32:17;;;;;;;;;;;21.60;87.00;;;;;;5029985;28;19924;-61
2022/05/26 14:34:45;;;;;;;;;;;21.60;86.50;;;;;;5029790;28;20286;-61
2022/05/26 14:37:15;;;;;;;;;;;21.60;86.20;;;;;;5026103;28;20075;-61
2022/05/26 14:39:41;;;;;;;;;;;21.60;86.70;;;;;;5027926;28;20408;-59
2022/05/26 14:42:08;;;;;;;;;;;21.70;87.20;;;;;;5029757;28;19913;-62
2022/05/26 14:44:33;;;;;;;;;;;21.80;86.70;;;;;;5027153;28;19963;-62
2022/05/26 14:46:59;;;;;;;;;;;21.90;87.30;;;;;;5028505;28;19917;-61
2022/05/26 14:49:24;;;;;;;;;;;22.00;86.50;;;;;;5026100;28;19952;-61
2022/05/26 14:51:50;;;;;;;;;;;22.10;86.20;;;;;;5028419;28;19921;-61
2022/05/26 14:57:00;;;;;;;;;;;22.10;85.70;;;;;;5028978;28;19919;-61
2022/05/26 14:59:26;;;;;;;;;;;22.10;86.40;;;;;;5027953;28;19914;-62
2022/05/26 15:01:52;;;;;;;;;;;22.20;86.00;;;;;;5025961;28;20274;-61
2022/05/26 15:04:17;;;;;;;;;;;22.20;85.50;;;;;;5027863;28;19944;-61
2022/05/26 15:06:45;;;;;;;;;;;22.10;85.00;;;;;;5028101;28;20439;-62
2022/05/26 15:09:18;;;;;;;;;;;22.00;84.90;;;;;;5029325;28;19938;-62
2022/05/26 15:11:44;;;;;;;;;;;22.00;85.40;;;;;;5026082;28;20285;-62
2022/05/26 15:14:10;;;;;;;;;;;22.00;85.00;;;;;;5028438;28;19925;-61
2022/05/26 15:16:36;;;;;;;;;;;22.00;84.70;;;;;;5019327;28;19940;-61